createdAt,value
2016-08-11T00:00:58.374Z,0
2016-08-11T00:01:58.391Z,0
2016-08-11T00:02:58.418Z,0
2016-08-11T00:03:58.429Z,0
2016-08-11T00:04:58.414Z,0
2016-08-11T00:05:58.430Z,0
2016-08-11T00:06:58.428Z,0
2016-08-11T00:07:58.448Z,0
2016-08-11T00:08:58.470Z,0
2016-08-11T00:09:58.467Z,0
2016-08-11T00:10:58.465Z,0
2016-08-11T00:11:58.480Z,0
2016-08-11T00:12:58.490Z,0
2016-08-11T00:13:58.472Z,0
2016-08-11T00:14:58.498Z,0
2016-08-11T00:15:58.495Z,0
2016-08-11T00:16:59.177Z,0
2016-08-11T00:17:58.521Z,0
2016-08-11T00:18:58.518Z,0
2016-08-11T00:19:58.532Z,0
2016-08-11T00:20:58.531Z,0
2016-08-11T00:21:58.593Z,0
2016-08-11T00:22:58.562Z,0
2016-08-11T00:23:58.564Z,0
2016-08-11T00:24:58.601Z,0
2016-08-11T00:25:58.604Z,0
2016-08-11T00:26:58.575Z,0
2016-08-11T00:27:58.590Z,0
2016-08-11T00:28:58.615Z,0
2016-08-11T00:29:58.646Z,0
2016-08-11T00:30:58.602Z,0
2016-08-11T00:31:58.633Z,0
2016-08-11T00:32:58.623Z,0
2016-08-11T00:33:59.345Z,0
2016-08-11T00:34:58.640Z,0
2016-08-11T00:35:58.650Z,0
2016-08-11T00:36:58.646Z,0
2016-08-11T00:37:58.663Z,0
2016-08-11T00:38:58.691Z,0
2016-08-11T00:39:58.916Z,0
2016-08-11T00:40:58.681Z,0
2016-08-11T00:41:58.693Z,0
2016-08-11T00:42:58.694Z,0
2016-08-11T00:43:58.686Z,0
2016-08-11T00:44:58.728Z,0
2016-08-11T00:45:58.739Z,0
2016-08-11T00:46:58.728Z,0
2016-08-11T00:47:58.756Z,0
2016-08-11T00:48:58.767Z,0
2016-08-11T00:49:58.784Z,0
2016-08-11T00:50:58.762Z,0
2016-08-11T00:51:58.758Z,0
2016-08-11T00:52:58.796Z,0
2016-08-11T00:53:58.788Z,0
2016-08-11T00:54:58.799Z,0
2016-08-11T00:55:58.814Z,0
2016-08-11T00:56:58.829Z,0
2016-08-11T00:57:58.826Z,0
2016-08-11T00:58:58.865Z,0
2016-08-11T00:59:59.512Z,0
2016-08-11T01:00:58.827Z,0
2016-08-11T01:01:58.898Z,0
2016-08-11T01:02:58.882Z,0
2016-08-11T01:03:58.850Z,0
2016-08-11T01:04:58.874Z,0
2016-08-11T01:05:58.899Z,0
2016-08-11T01:06:58.926Z,0
2016-08-11T01:07:59.593Z,0
2016-08-11T01:08:58.893Z,0
2016-08-11T01:09:58.929Z,0
2016-08-11T01:10:58.938Z,0
2016-08-11T01:11:58.914Z,0
2016-08-11T01:12:58.941Z,0
2016-08-11T01:13:58.953Z,0
2016-08-11T01:14:58.956Z,0
2016-08-11T01:15:58.960Z,0
2016-08-11T01:16:58.976Z,0
2016-08-11T01:17:58.949Z,0
2016-08-11T01:18:58.958Z,0
2016-08-11T01:19:59.018Z,0
2016-08-11T01:20:58.989Z,0
2016-08-11T01:21:59.107Z,0
2016-08-11T01:22:59.015Z,0
2016-08-11T01:23:59.012Z,0
2016-08-11T01:24:59.029Z,0
2016-08-11T01:25:59.069Z,0
2016-08-11T01:26:59.039Z,0
2016-08-11T01:27:59.062Z,0
2016-08-11T01:28:59.080Z,0
2016-08-11T01:29:59.074Z,0
2016-08-11T01:30:59.053Z,0
2016-08-11T01:31:59.047Z,0
2016-08-11T01:32:59.089Z,0
2016-08-11T01:33:59.130Z,0
2016-08-11T01:34:59.113Z,0
2016-08-11T01:35:59.103Z,0
2016-08-11T01:36:59.140Z,0
2016-08-11T01:37:59.118Z,0
2016-08-11T01:38:59.148Z,0
2016-08-11T01:39:59.146Z,0
2016-08-11T01:40:59.186Z,0
2016-08-11T01:41:59.151Z,0
2016-08-11T01:42:59.186Z,0
2016-08-11T01:43:59.167Z,0
2016-08-11T01:44:59.155Z,0
2016-08-11T01:45:59.183Z,0
2016-08-11T01:46:59.227Z,0
2016-08-11T01:47:59.231Z,0
2016-08-11T01:48:59.198Z,0
2016-08-11T01:49:59.235Z,0
2016-08-11T01:50:59.237Z,0
2016-08-11T01:51:59.235Z,0
2016-08-11T01:52:59.228Z,0
2016-08-11T01:53:59.266Z,0
2016-08-11T01:54:59.239Z,0
2016-08-11T01:55:59.276Z,0
2016-08-11T01:56:59.284Z,0
2016-08-11T01:57:59.290Z,0
2016-08-11T01:58:59.285Z,0
2016-08-11T01:59:59.309Z,0
2016-08-11T02:00:59.345Z,0
2016-08-11T02:01:59.299Z,0
2016-08-11T02:02:59.316Z,0
2016-08-11T02:03:59.310Z,0
2016-08-11T02:04:59.316Z,0
2016-08-11T02:05:59.357Z,0
2016-08-11T02:06:59.385Z,0
2016-08-11T02:07:59.354Z,0
2016-08-11T02:08:59.377Z,0
2016-08-11T02:09:59.387Z,0
2016-08-11T02:10:59.398Z,0
2016-08-11T02:11:59.414Z,0
2016-08-11T02:12:59.413Z,0
2016-08-11T02:13:59.433Z,0
2016-08-11T02:14:59.400Z,0
2016-08-11T02:15:59.426Z,0
2016-08-11T02:16:59.429Z,0
2016-08-11T02:17:59.446Z,0
2016-08-11T02:18:59.444Z,0
2016-08-11T02:19:59.441Z,0
2016-08-11T02:20:59.466Z,0
2016-08-11T02:21:59.511Z,0
2016-08-11T02:22:59.486Z,0
2016-08-11T02:23:59.489Z,0
2016-08-11T02:24:59.493Z,0
2016-08-11T02:25:59.493Z,0
2016-08-11T02:26:59.509Z,0
2016-08-11T02:27:59.499Z,0
2016-08-11T02:28:59.531Z,0
2016-08-11T02:29:59.520Z,0
2016-08-11T02:30:59.533Z,0
2016-08-11T02:31:59.527Z,0
2016-08-11T02:32:59.600Z,0
2016-08-11T02:33:59.550Z,0
2016-08-11T02:34:59.579Z,0
2016-08-11T02:35:59.593Z,0
2016-08-11T02:36:59.585Z,0
2016-08-11T02:37:59.594Z,0
2016-08-11T02:38:59.630Z,0
2016-08-11T02:39:59.624Z,0
2016-08-11T02:41:00.312Z,0
2016-08-11T02:41:59.647Z,0
2016-08-11T02:42:59.641Z,0
2016-08-11T02:43:59.621Z,0
2016-08-11T02:44:59.632Z,0
2016-08-11T02:45:59.668Z,0
2016-08-11T02:46:59.692Z,0
2016-08-11T02:47:59.658Z,0
2016-08-11T02:48:59.667Z,0
2016-08-11T02:49:59.703Z,0
2016-08-11T02:50:59.687Z,0
2016-08-11T02:52:00.410Z,0
2016-08-11T02:52:59.728Z,0
2016-08-11T02:53:59.722Z,0
2016-08-11T02:54:59.763Z,0
2016-08-11T02:55:59.715Z,0
2016-08-11T02:56:59.739Z,0
2016-08-11T02:57:59.783Z,0
2016-08-11T02:58:59.760Z,0
2016-08-11T02:59:59.778Z,0
2016-08-11T03:00:59.773Z,0
2016-08-11T03:01:59.777Z,0
2016-08-11T03:02:59.782Z,0
2016-08-11T03:04:00.477Z,0
2016-08-11T03:04:59.773Z,0
2016-08-11T03:05:59.823Z,0
2016-08-11T03:06:59.811Z,0
2016-08-11T03:07:59.845Z,0
2016-08-11T03:08:59.820Z,0
2016-08-11T03:09:59.871Z,0
2016-08-11T03:10:59.851Z,0
2016-08-11T03:11:59.869Z,0
2016-08-11T03:12:59.857Z,0
2016-08-11T03:13:59.887Z,0
2016-08-11T03:14:59.884Z,0
2016-08-11T03:15:59.863Z,0
2016-08-11T03:16:59.916Z,0
2016-08-11T03:17:59.912Z,0
2016-08-11T03:18:59.927Z,0
2016-08-11T03:20:00.607Z,0
2016-08-11T03:20:59.920Z,0
2016-08-11T03:21:59.938Z,0
2016-08-11T03:22:59.972Z,0
2016-08-11T03:23:59.930Z,0
2016-08-11T03:24:59.949Z,0
2016-08-11T03:25:59.943Z,0
2016-08-11T03:26:59.975Z,0
2016-08-11T03:27:59.993Z,0
2016-08-11T03:29:00.027Z,0
2016-08-11T03:29:59.970Z,0
2016-08-11T03:31:00.023Z,0
2016-08-11T03:32:00.006Z,0
2016-08-11T03:33:00.011Z,0
2016-08-11T03:34:00.012Z,0
2016-08-11T03:35:00.038Z,0
2016-08-11T03:36:00.054Z,0
2016-08-11T03:37:00.039Z,0
2016-08-11T03:38:00.052Z,0
2016-08-11T03:39:00.049Z,0
2016-08-11T03:40:00.047Z,0
2016-08-11T03:41:00.092Z,0
2016-08-11T03:42:00.082Z,0
2016-08-11T03:43:00.119Z,0
2016-08-11T03:44:00.094Z,0
2016-08-11T03:45:00.097Z,0
2016-08-11T03:46:00.101Z,0
2016-08-11T03:47:00.148Z,0
2016-08-11T03:48:00.110Z,0
2016-08-11T03:49:00.158Z,0
2016-08-11T03:50:00.146Z,0
2016-08-11T03:51:00.158Z,0
2016-08-11T03:52:00.145Z,0
2016-08-11T03:53:00.162Z,0
2016-08-11T03:54:00.176Z,0
2016-08-11T03:55:00.195Z,0
2016-08-11T03:56:00.199Z,0
2016-08-11T03:57:00.196Z,0
2016-08-11T03:58:00.236Z,0
2016-08-11T03:59:00.238Z,0
2016-08-11T04:00:00.214Z,0
2016-08-11T04:01:00.243Z,0
2016-08-11T04:02:00.236Z,0
2016-08-11T04:03:00.242Z,0
2016-08-11T04:04:00.246Z,0
2016-08-11T04:05:00.249Z,0
2016-08-11T04:06:00.959Z,0
2016-08-11T04:07:00.295Z,0
2016-08-11T04:08:00.291Z,0
2016-08-11T04:09:00.315Z,0
2016-08-11T04:10:00.298Z,0
2016-08-11T04:11:00.312Z,0
2016-08-11T04:12:00.291Z,0
2016-08-11T04:13:00.316Z,0
2016-08-11T04:14:00.334Z,0
2016-08-11T04:15:00.325Z,0
2016-08-11T04:16:00.319Z,0
2016-08-11T04:17:00.363Z,0
2016-08-11T04:18:00.358Z,0
2016-08-11T04:19:00.372Z,0
2016-08-11T04:20:00.378Z,0
2016-08-11T04:21:01.101Z,0
2016-08-11T04:22:00.427Z,0
2016-08-11T04:23:00.395Z,0
2016-08-11T04:24:00.407Z,0
2016-08-11T04:25:00.416Z,0
2016-08-11T04:26:00.420Z,0
2016-08-11T04:27:00.439Z,0
2016-08-11T04:28:00.427Z,0
2016-08-11T04:30:00.450Z,0
2016-08-11T04:31:00.461Z,0
2016-08-11T04:32:00.434Z,0
2016-08-11T04:33:00.468Z,0
2016-08-11T04:34:00.466Z,0
2016-08-11T04:35:00.507Z,0
2016-08-11T04:36:00.523Z,0
2016-08-11T04:37:00.492Z,0
2016-08-11T04:38:00.499Z,0
2016-08-11T04:39:00.551Z,0
2016-08-11T04:40:00.499Z,0
2016-08-11T04:41:00.523Z,0
2016-08-11T04:42:00.539Z,0
2016-08-11T04:43:00.542Z,0
2016-08-11T04:44:00.592Z,0
2016-08-11T04:45:00.559Z,0
2016-08-11T04:46:00.570Z,0
2016-08-11T04:47:00.568Z,0
2016-08-11T04:48:00.594Z,0
2016-08-11T04:49:00.603Z,0
2016-08-11T04:50:00.585Z,0
2016-08-11T04:51:00.579Z,0
2016-08-11T04:52:00.636Z,0
2016-08-11T04:53:00.625Z,0
2016-08-11T04:54:00.649Z,0
2016-08-11T04:55:00.648Z,0
2016-08-11T04:56:00.645Z,0
2016-08-11T04:57:00.664Z,0
2016-08-11T04:58:01.368Z,0
2016-08-11T05:00:00.691Z,5
2016-08-11T05:01:00.706Z,5
2016-08-11T05:02:00.689Z,5
2016-08-11T05:03:00.686Z,5
2016-08-11T05:04:00.715Z,5
2016-08-11T05:05:00.726Z,5
2016-08-11T05:06:00.720Z,5
2016-08-11T05:07:00.726Z,5
2016-08-11T05:08:00.724Z,5
2016-08-11T05:09:00.741Z,5
2016-08-11T05:10:00.770Z,5
2016-08-11T05:11:00.761Z,5
2016-08-11T05:12:00.762Z,5
2016-08-11T05:13:00.792Z,5
2016-08-11T05:15:00.806Z,5
2016-08-11T05:16:00.822Z,5
2016-08-11T05:17:00.825Z,5
2016-08-11T05:18:00.817Z,5
2016-08-11T05:19:00.834Z,5
2016-08-11T05:20:00.837Z,5
2016-08-11T05:21:00.805Z,5
2016-08-11T05:22:00.901Z,5
2016-08-11T05:23:00.888Z,5
2016-08-11T05:24:00.854Z,5
2016-08-11T05:25:00.842Z,5
2016-08-11T05:26:00.889Z,5
2016-08-11T05:27:00.880Z,5
2016-08-11T05:28:00.897Z,5
2016-08-11T05:30:00.921Z,5
2016-08-11T05:31:00.935Z,5
2016-08-11T05:32:00.910Z,5
2016-08-11T05:33:00.930Z,5
2016-08-11T05:34:00.971Z,5
2016-08-11T05:35:00.941Z,5
2016-08-11T05:36:01.951Z,5
2016-08-11T05:37:00.992Z,5
2016-08-11T05:38:00.968Z,5
2016-08-11T05:39:00.968Z,5
2016-08-11T05:40:00.982Z,5
2016-08-11T05:41:01.006Z,5
2016-08-11T05:42:00.982Z,5
2016-08-11T05:43:01.026Z,5
2016-08-11T05:45:01.034Z,5
2016-08-11T05:46:01.043Z,5
2016-08-11T05:47:01.010Z,5
2016-08-11T05:48:01.079Z,5
2016-08-11T05:49:01.049Z,5
2016-08-11T05:50:01.080Z,5
2016-08-11T05:51:01.041Z,5
2016-08-11T05:52:01.067Z,5
2016-08-11T05:53:01.093Z,5
2016-08-11T05:54:01.077Z,5
2016-08-11T05:55:01.104Z,5
2016-08-11T05:56:02.011Z,10
2016-08-11T05:57:01.116Z,10
2016-08-11T05:58:01.101Z,10
2016-08-11T05:59:01.118Z,10
2016-08-11T06:00:01.133Z,10
2016-08-11T06:01:01.161Z,10
2016-08-11T06:02:01.149Z,10
2016-08-11T06:03:01.161Z,10
2016-08-11T06:04:01.175Z,10
2016-08-11T06:05:01.190Z,10
2016-08-11T06:06:01.217Z,10
2016-08-11T06:07:01.194Z,10
2016-08-11T06:08:01.206Z,10
2016-08-11T06:09:01.211Z,10
2016-08-11T06:10:01.207Z,10
2016-08-11T06:11:01.230Z,10
2016-08-11T06:12:01.205Z,10
2016-08-11T06:13:01.244Z,10
2016-08-11T06:14:01.236Z,10
2016-08-11T06:15:01.238Z,10
2016-08-11T06:16:01.276Z,10
2016-08-11T06:17:01.271Z,10
2016-08-11T06:18:01.271Z,10
2016-08-11T06:19:01.969Z,10
2016-08-11T06:20:01.279Z,10
2016-08-11T06:21:01.278Z,10
2016-08-11T06:22:01.500Z,10
2016-08-11T06:23:01.324Z,10
2016-08-11T06:24:01.309Z,10
2016-08-11T06:25:01.354Z,10
2016-08-11T06:26:01.341Z,10
2016-08-11T06:27:01.344Z,10
2016-08-11T06:28:01.336Z,10
2016-08-11T06:29:01.381Z,10
2016-08-11T06:30:01.377Z,10
2016-08-11T06:31:01.351Z,10
2016-08-11T06:32:01.365Z,10
2016-08-11T06:33:01.395Z,10
2016-08-11T06:34:01.401Z,10
2016-08-11T06:35:01.382Z,10
2016-08-11T06:36:01.398Z,10
2016-08-11T06:37:01.446Z,10
2016-08-11T06:38:01.439Z,10
2016-08-11T06:39:01.450Z,10
2016-08-11T06:40:01.453Z,10
2016-08-11T06:41:01.483Z,10
2016-08-11T06:42:01.729Z,10
2016-08-11T06:43:01.437Z,10
2016-08-11T06:44:01.494Z,10
2016-08-11T06:45:01.476Z,10
2016-08-11T06:46:01.486Z,10
2016-08-11T06:47:01.494Z,10
2016-08-11T06:48:01.523Z,10
2016-08-11T06:49:01.522Z,10
2016-08-11T06:50:01.497Z,10
2016-08-11T06:51:01.508Z,10
2016-08-11T06:52:01.545Z,10
2016-08-11T06:53:01.861Z,10
2016-08-11T06:54:02.450Z,10
2016-08-11T06:55:01.552Z,10
2016-08-11T06:56:01.574Z,10
2016-08-11T06:57:01.788Z,10
2016-08-11T06:58:01.573Z,10
2016-08-11T06:59:01.573Z,10
2016-08-11T07:00:01.563Z,10
2016-08-11T07:01:01.958Z,10
2016-08-11T07:02:01.596Z,10
2016-08-11T07:03:01.620Z,10
2016-08-11T07:04:01.916Z,10
2016-08-11T07:05:01.650Z,10
2016-08-11T07:06:01.629Z,10
2016-08-11T07:07:01.620Z,10
2016-08-11T07:08:01.619Z,10
2016-08-11T07:09:01.634Z,10
2016-08-11T07:10:01.931Z,10
2016-08-11T07:11:01.668Z,10
2016-08-11T07:12:01.661Z,10
2016-08-11T07:13:01.675Z,10
2016-08-11T07:14:01.679Z,10
2016-08-11T07:15:01.709Z,10
2016-08-11T07:16:01.942Z,10
2016-08-11T07:17:01.713Z,10
2016-08-11T07:18:01.733Z,10
2016-08-11T07:19:01.728Z,10
2016-08-11T07:20:01.986Z,10
2016-08-11T07:21:01.739Z,10
2016-08-11T07:22:01.764Z,10
2016-08-11T07:23:01.809Z,10
2016-08-11T07:24:01.989Z,5
2016-08-11T07:25:01.991Z,5
2016-08-11T07:26:01.813Z,10
2016-08-11T07:27:02.117Z,10
2016-08-11T07:28:02.546Z,10
2016-08-11T07:29:01.801Z,10
2016-08-11T07:30:02.014Z,10
2016-08-11T07:31:01.796Z,10
2016-08-11T07:32:02.011Z,10
2016-08-11T07:33:02.529Z,10
2016-08-11T07:34:01.833Z,10
2016-08-11T07:35:01.850Z,10
2016-08-11T07:36:01.845Z,10
2016-08-11T07:37:01.846Z,10
2016-08-11T07:38:01.908Z,10
2016-08-11T07:39:02.073Z,10
2016-08-11T07:40:01.870Z,10
2016-08-11T07:41:01.872Z,10
2016-08-11T07:42:02.010Z,10
2016-08-11T07:43:02.237Z,10
2016-08-11T07:44:01.893Z,10
2016-08-11T07:45:01.930Z,10
2016-08-11T07:46:01.945Z,10
2016-08-11T07:47:01.936Z,10
2016-08-11T07:48:02.245Z,10
2016-08-11T07:49:01.937Z,10
2016-08-11T07:50:01.967Z,10
2016-08-11T07:51:01.974Z,10
2016-08-11T07:52:02.205Z,10
2016-08-11T07:53:01.984Z,10
2016-08-11T07:54:02.046Z,10
2016-08-11T07:55:01.979Z,10
2016-08-11T07:56:02.029Z,10
2016-08-11T07:57:01.991Z,10
2016-08-11T07:58:02.017Z,15
2016-08-11T07:59:02.328Z,15
2016-08-11T08:00:02.082Z,15
2016-08-11T08:01:02.035Z,15
2016-08-11T08:02:02.041Z,10
2016-08-11T08:03:02.716Z,15
2016-08-11T08:04:02.040Z,15
2016-08-11T08:05:02.089Z,15
2016-08-11T08:06:02.064Z,15
2016-08-11T08:07:02.092Z,15
2016-08-11T08:08:02.375Z,15
2016-08-11T08:09:02.113Z,15
2016-08-11T08:10:02.093Z,15
2016-08-11T08:11:02.091Z,15
2016-08-11T08:12:02.222Z,15
2016-08-11T08:13:02.155Z,15
2016-08-11T08:14:02.135Z,15
2016-08-11T08:15:02.375Z,15
2016-08-11T08:16:02.176Z,15
2016-08-11T08:17:02.190Z,15
2016-08-11T08:18:02.339Z,15
2016-08-11T08:19:02.202Z,15
2016-08-11T08:20:02.908Z,10
2016-08-11T08:21:02.244Z,10
2016-08-11T08:22:02.206Z,10
2016-08-11T08:23:02.285Z,15
2016-08-11T08:24:02.221Z,15
2016-08-11T08:25:02.226Z,15
2016-08-11T08:26:02.433Z,15
2016-08-11T08:27:02.238Z,15
2016-08-11T08:28:02.236Z,15
2016-08-11T08:29:02.515Z,15
2016-08-11T08:30:02.251Z,15
2016-08-11T08:31:02.467Z,15
2016-08-11T08:32:02.311Z,15
2016-08-11T08:33:02.271Z,15
2016-08-11T08:34:02.276Z,15
2016-08-11T08:35:02.286Z,15
2016-08-11T08:36:02.457Z,15
2016-08-11T08:37:02.717Z,15
2016-08-11T08:38:02.326Z,10
2016-08-11T08:39:02.592Z,10
2016-08-11T08:40:02.354Z,10
2016-08-11T08:41:02.335Z,10
2016-08-11T08:42:02.542Z,10
2016-08-11T08:43:02.532Z,10
2016-08-11T08:44:02.383Z,10
2016-08-11T08:45:03.078Z,20
2016-08-11T08:46:02.410Z,20
2016-08-11T08:47:02.402Z,20
2016-08-11T08:48:02.518Z,20
2016-08-11T08:49:02.662Z,20
2016-08-11T08:50:02.434Z,20
2016-08-11T08:51:02.411Z,20
2016-08-11T08:52:02.578Z,15
2016-08-11T08:53:02.463Z,20
2016-08-11T08:54:02.436Z,20
2016-08-11T08:55:02.540Z,20
2016-08-11T08:56:02.474Z,20
2016-08-11T08:57:02.464Z,20
2016-08-11T08:59:02.512Z,20
2016-08-11T09:00:02.487Z,20
2016-08-11T09:01:02.522Z,10
2016-08-11T09:02:02.538Z,20
2016-08-11T09:03:02.746Z,20
2016-08-11T09:04:02.560Z,20
2016-08-11T09:05:02.571Z,20
2016-08-11T09:06:02.528Z,20
2016-08-11T09:07:02.560Z,20
2016-08-11T09:08:02.603Z,20
2016-08-11T09:09:02.578Z,20
2016-08-11T09:10:02.588Z,20
2016-08-11T09:11:02.571Z,15
2016-08-11T09:12:02.605Z,15
2016-08-11T09:13:02.624Z,25
2016-08-11T09:14:02.620Z,25
2016-08-11T09:15:02.600Z,25
2016-08-11T09:16:02.603Z,25
2016-08-11T09:17:02.619Z,25
2016-08-11T09:18:02.634Z,30
2016-08-11T09:19:02.635Z,30
2016-08-11T09:20:02.629Z,30
2016-08-11T09:21:02.703Z,30
2016-08-11T09:22:02.688Z,25
2016-08-11T09:23:02.727Z,25
2016-08-11T09:24:02.724Z,25
2016-08-11T09:25:02.703Z,25
2016-08-11T09:26:02.699Z,25
2016-08-11T09:27:02.721Z,25
2016-08-11T09:28:02.712Z,25
2016-08-11T09:29:02.764Z,25
2016-08-11T09:31:15.581Z,30
2016-08-11T09:32:15.610Z,25
2016-08-11T09:33:15.606Z,20
2016-08-11T09:34:15.594Z,30
2016-08-11T09:35:15.619Z,30
2016-08-11T09:36:15.622Z,30
2016-08-11T09:37:15.628Z,30
2016-08-11T09:38:15.653Z,30
2016-08-11T09:39:15.730Z,30
2016-08-11T09:40:15.658Z,30
2016-08-11T09:41:15.681Z,30
2016-08-11T09:42:15.702Z,30
2016-08-11T09:43:15.736Z,25
2016-08-11T09:44:15.672Z,15
2016-08-11T09:45:15.702Z,15
2016-08-11T09:46:15.678Z,30
2016-08-11T09:47:15.708Z,30
2016-08-11T09:48:15.708Z,30
2016-08-11T09:49:15.724Z,30
2016-08-11T09:50:15.750Z,30
2016-08-11T09:51:15.721Z,20
2016-08-11T09:52:15.775Z,20
2016-08-11T09:53:15.794Z,20
2016-08-11T09:54:15.765Z,20
2016-08-11T09:55:15.785Z,20
2016-08-11T09:56:15.791Z,20
2016-08-11T09:57:15.782Z,20
2016-08-11T09:58:15.829Z,30
2016-08-11T09:59:15.796Z,30
2016-08-11T10:00:15.808Z,35
2016-08-11T10:01:15.820Z,35
2016-08-11T10:02:15.833Z,35
2016-08-11T10:03:15.810Z,35
2016-08-11T10:04:15.847Z,35
2016-08-11T10:05:15.856Z,35
2016-08-11T10:06:15.832Z,35
2016-08-11T10:07:15.864Z,20
2016-08-11T10:08:15.859Z,20
2016-08-11T10:09:15.895Z,35
2016-08-11T10:10:15.927Z,35
2016-08-11T10:11:15.923Z,35
2016-08-11T10:12:15.880Z,35
2016-08-11T10:13:15.908Z,40
2016-08-11T10:14:15.909Z,40
2016-08-11T10:15:15.920Z,35
2016-08-11T10:16:15.944Z,35
2016-08-11T10:17:15.959Z,45
2016-08-11T10:18:15.948Z,40
2016-08-11T10:19:15.966Z,40
2016-08-11T10:20:15.949Z,25
2016-08-11T10:21:15.964Z,25
2016-08-11T10:22:15.997Z,25
2016-08-11T10:23:16.073Z,30
2016-08-11T10:24:16.025Z,40
2016-08-11T10:25:16.031Z,35
2016-08-11T10:26:16.044Z,35
2016-08-11T10:27:16.022Z,35
2016-08-11T10:28:16.040Z,40
2016-08-11T10:29:16.037Z,25
2016-08-11T10:30:16.026Z,25
2016-08-11T10:31:16.038Z,25
2016-08-11T10:32:16.038Z,30
2016-08-11T10:33:16.051Z,30
2016-08-11T10:34:16.073Z,40
2016-08-11T10:35:16.087Z,45
2016-08-11T10:36:16.140Z,35
2016-08-11T10:37:16.126Z,40
2016-08-11T10:38:16.108Z,40
2016-08-11T10:39:16.104Z,45
2016-08-11T10:40:16.149Z,40
2016-08-11T10:41:16.117Z,50
2016-08-11T10:42:16.119Z,45
2016-08-11T10:43:16.160Z,30
2016-08-11T10:44:16.142Z,30
2016-08-11T10:45:16.194Z,25
2016-08-11T10:46:16.219Z,30
2016-08-11T10:47:16.171Z,30
2016-08-11T10:48:16.210Z,45
2016-08-11T10:49:16.166Z,40
2016-08-11T10:50:16.173Z,35
2016-08-11T10:51:16.177Z,35
2016-08-11T10:52:16.195Z,35
2016-08-11T10:53:16.226Z,35
2016-08-11T10:54:16.224Z,35
2016-08-11T10:55:16.260Z,35
2016-08-11T10:56:16.210Z,25
2016-08-11T10:57:16.284Z,35
2016-08-11T10:58:16.227Z,35
2016-08-11T10:59:16.264Z,35
2016-08-11T11:00:16.240Z,35
2016-08-11T11:01:16.281Z,40
2016-08-11T11:02:16.306Z,40
2016-08-11T11:03:16.329Z,40
2016-08-11T11:04:16.278Z,40
2016-08-11T11:05:16.321Z,40
2016-08-11T11:06:16.315Z,40
2016-08-11T11:07:16.333Z,40
2016-08-11T11:08:16.319Z,40
2016-08-11T11:09:16.348Z,40
2016-08-11T11:10:16.366Z,40
2016-08-11T11:11:16.354Z,40
2016-08-11T11:12:16.354Z,40
2016-08-11T11:13:16.358Z,40
2016-08-11T11:14:16.372Z,40
2016-08-11T11:15:16.380Z,40
2016-08-11T11:16:16.372Z,40
2016-08-11T11:17:16.400Z,40
2016-08-11T11:18:16.387Z,40
2016-08-11T11:19:16.403Z,40
2016-08-11T11:20:16.421Z,35
2016-08-11T11:21:16.421Z,35
2016-08-11T11:22:16.457Z,40
2016-08-11T11:23:16.474Z,50
2016-08-11T11:24:16.453Z,50
2016-08-11T11:25:16.454Z,50
2016-08-11T11:26:16.470Z,50
2016-08-11T11:27:16.469Z,45
2016-08-11T11:28:16.505Z,45
2016-08-11T11:29:16.493Z,40
2016-08-11T11:30:16.493Z,40
2016-08-11T11:31:16.527Z,25
2016-08-11T11:32:16.531Z,20
2016-08-11T11:33:16.507Z,30
2016-08-11T11:34:16.532Z,20
2016-08-11T11:35:16.571Z,20
2016-08-11T11:36:16.586Z,40
2016-08-11T11:37:16.556Z,30
2016-08-11T11:38:16.558Z,30
2016-08-11T11:39:16.570Z,50
2016-08-11T11:40:16.573Z,55
2016-08-11T11:41:16.605Z,60
2016-08-11T11:42:16.598Z,60
2016-08-11T11:43:16.584Z,60
2016-08-11T11:44:16.594Z,65
2016-08-11T11:45:16.634Z,60
2016-08-11T11:46:16.643Z,65
2016-08-11T11:47:16.663Z,65
2016-08-11T11:48:16.610Z,55
2016-08-11T11:49:16.652Z,45
2016-08-11T11:50:16.620Z,55
2016-08-11T11:51:16.638Z,45
2016-08-11T11:52:16.651Z,40
2016-08-11T11:53:16.671Z,35
2016-08-11T11:54:16.732Z,40
2016-08-11T11:55:16.689Z,35
2016-08-11T11:56:16.696Z,45
2016-08-11T11:57:16.702Z,45
2016-08-11T11:58:16.719Z,45
2016-08-11T11:59:16.737Z,45
2016-08-11T12:00:16.731Z,40
2016-08-11T12:01:16.764Z,45
2016-08-11T12:02:16.761Z,45
2016-08-11T12:03:16.771Z,45
2016-08-11T12:04:16.777Z,45
2016-08-11T12:05:16.797Z,45
2016-08-11T12:06:16.760Z,45
2016-08-11T12:07:16.769Z,45
2016-08-11T12:08:16.801Z,45
2016-08-11T12:09:16.803Z,50
2016-08-11T12:10:16.810Z,55
2016-08-11T12:11:16.804Z,55
2016-08-11T12:12:16.842Z,55
2016-08-11T12:13:16.844Z,55
2016-08-11T12:14:16.877Z,55
2016-08-11T12:16:16.842Z,55
2016-08-11T12:17:16.862Z,50
2016-08-11T12:18:16.889Z,50
2016-08-11T12:19:16.902Z,50
2016-08-11T12:20:16.899Z,45
2016-08-11T12:21:16.922Z,45
2016-08-11T12:22:16.909Z,50
2016-08-11T12:23:17.045Z,50
2016-08-11T12:24:16.895Z,50
2016-08-11T12:25:16.963Z,55
2016-08-11T12:26:16.942Z,55
2016-08-11T12:27:16.964Z,40
2016-08-11T12:28:16.947Z,40
2016-08-11T12:29:16.974Z,50
2016-08-11T12:30:17.009Z,50
2016-08-11T12:31:16.997Z,45
2016-08-11T12:32:16.992Z,45
2016-08-11T12:33:17.003Z,45
2016-08-11T12:34:17.036Z,45
2016-08-11T12:35:17.013Z,30
2016-08-11T12:36:17.004Z,25
2016-08-11T12:37:17.040Z,25
2016-08-11T12:38:17.059Z,25
2016-08-11T12:39:17.049Z,40
2016-08-11T12:40:17.049Z,40
2016-08-11T12:41:17.083Z,40
2016-08-11T12:42:17.060Z,45
2016-08-11T12:43:17.098Z,45
2016-08-11T12:44:17.096Z,50
2016-08-11T12:46:17.086Z,45
2016-08-11T12:47:17.804Z,35
2016-08-11T12:48:17.122Z,35
2016-08-11T12:49:17.124Z,35
2016-08-11T12:50:17.837Z,25
2016-08-11T12:51:17.840Z,25
2016-08-11T12:52:17.178Z,25
2016-08-11T12:53:17.871Z,30
2016-08-11T12:54:17.842Z,30
2016-08-11T12:55:17.180Z,30
2016-08-11T12:56:17.198Z,30
2016-08-11T12:57:17.225Z,25
2016-08-11T12:58:17.195Z,20
2016-08-11T12:59:17.219Z,20
2016-08-11T13:00:17.217Z,15
2016-08-11T13:01:17.215Z,15
2016-08-11T13:02:17.940Z,15
2016-08-11T13:03:17.260Z,15
2016-08-11T13:04:17.279Z,15
2016-08-11T13:05:17.253Z,15
2016-08-11T13:06:17.948Z,15
2016-08-11T13:07:17.298Z,15
2016-08-11T13:08:17.296Z,15
2016-08-11T13:09:17.318Z,15
2016-08-11T13:10:17.309Z,10
2016-08-11T13:11:17.331Z,10
2016-08-11T13:12:17.335Z,10
2016-08-11T13:13:17.329Z,15
2016-08-11T13:14:17.322Z,15
2016-08-11T13:15:17.362Z,20
2016-08-11T13:16:17.345Z,20
2016-08-11T13:17:17.341Z,25
2016-08-11T13:18:17.362Z,25
2016-08-11T13:19:17.357Z,30
2016-08-11T13:20:17.385Z,35
2016-08-11T13:21:17.363Z,40
2016-08-11T13:22:17.399Z,40
2016-08-11T13:23:17.457Z,40
2016-08-11T13:24:17.406Z,40
2016-08-11T13:25:17.419Z,40
2016-08-11T13:26:17.425Z,40
2016-08-11T13:27:17.426Z,40
2016-08-11T13:28:17.467Z,35
2016-08-11T13:29:17.449Z,35
2016-08-11T13:30:17.469Z,25
2016-08-11T13:31:17.501Z,25
2016-08-11T13:32:17.467Z,35
2016-08-11T13:33:17.484Z,35
2016-08-11T13:34:17.533Z,35
2016-08-11T13:35:17.514Z,35
2016-08-11T13:36:17.530Z,40
2016-08-11T13:37:18.207Z,35
2016-08-11T13:38:17.546Z,35
2016-08-11T13:39:17.585Z,40
2016-08-11T13:40:17.562Z,30
2016-08-11T13:41:17.596Z,30
2016-08-11T13:42:17.572Z,25
2016-08-11T13:43:17.597Z,25
2016-08-11T13:44:17.571Z,25
2016-08-11T13:45:17.608Z,20
2016-08-11T13:46:17.607Z,20
2016-08-11T13:47:17.629Z,20
2016-08-11T13:48:17.628Z,20
2016-08-11T13:49:17.653Z,20
2016-08-11T13:50:17.636Z,20
2016-08-11T13:51:17.639Z,25
2016-08-11T13:52:17.689Z,30
2016-08-11T13:53:17.666Z,30
2016-08-11T13:54:17.670Z,30
2016-08-11T13:55:17.665Z,35
2016-08-11T13:56:17.690Z,40
2016-08-11T13:57:17.704Z,40
2016-08-11T13:58:17.703Z,35
2016-08-11T13:59:17.730Z,35
2016-08-11T14:00:17.701Z,35
2016-08-11T14:01:17.751Z,35
2016-08-11T14:02:17.766Z,35
2016-08-11T14:03:17.765Z,35
2016-08-11T14:04:19.148Z,30
2016-08-11T14:05:17.789Z,30
2016-08-11T14:06:17.775Z,30
2016-08-11T14:07:17.793Z,30
2016-08-11T14:08:17.823Z,30
2016-08-11T14:09:17.814Z,30
2016-08-11T14:10:17.824Z,30
2016-08-11T14:11:17.867Z,30
2016-08-11T14:12:17.825Z,30
2016-08-11T14:13:17.857Z,30
2016-08-11T14:14:17.856Z,30
2016-08-11T14:15:17.852Z,30
2016-08-11T14:16:17.867Z,30
2016-08-11T14:17:17.886Z,30
2016-08-11T14:18:17.880Z,30
2016-08-11T14:19:17.899Z,30
2016-08-11T14:20:17.913Z,30
2016-08-11T14:21:17.951Z,25
2016-08-11T14:22:17.920Z,25
2016-08-11T14:23:18.011Z,25
2016-08-11T14:24:17.956Z,25
2016-08-11T14:25:17.956Z,25
2016-08-11T14:26:18.007Z,20
2016-08-11T14:27:17.963Z,20
2016-08-11T14:28:17.976Z,25
2016-08-11T14:29:18.026Z,30
2016-08-11T14:30:17.978Z,25
2016-08-11T14:31:18.016Z,25
2016-08-11T14:32:18.716Z,25
2016-08-11T14:33:18.042Z,25
2016-08-11T14:34:18.068Z,25
2016-08-11T14:35:18.046Z,20
2016-08-11T14:36:18.072Z,25
2016-08-11T14:37:18.074Z,20
2016-08-11T14:38:18.087Z,25